Terminal Aerodrome Forecast
Issued by NWS Tuscon, AZ

Home | Current Version | Previous Version | Text Only | Print | Product List | Glossary On
Versions: 1 2 3 4 5 6 7 8 9 10 11 12 13 14 15
638
FTUS45 KTWC 071732
TAFTUS
TAF
KTUS 071732Z 0718/0818 12010KT P6SM BKN250
     FM072200 35007KT P6SM BKN250
     FM080200 VRB03KT P6SM BKN250
     FM080700 14007KT P6SM SCT250=

USA.gov is the U.S. government's official web portal to all federal, state and local government web resources and services.